Time;durP1;ratioP1;P1;durP2;ratioP2;P2;SDS_P1;SDS_P2;PMS_P1;PMS_P2;Temp;Humidity;BMP_temperature;BMP_pressure;BME280_temperature;BME280_humidity;BME280_pressure;Samples;Min_cycle;Max_cycle;Signal;HPM_P1;HPM_P2
2021/05/22 00:00:29;;;;;;;1.67;0.68;;;;;;;;;;4976938;28;20054;-49
2021/05/22 00:02:56;;;;;;;1.77;0.70;;;;;;;;;;4989964;28;20054;-49
2021/05/22 00:05:23;;;;;;;1.58;0.75;;;;;;;;;;4995299;28;20047;-51
2021/05/22 00:07:49;;;;;;;1.02;0.63;;;;;;;;;;4979420;28;20057;-50
2021/05/22 00:10:16;;;;;;;0.93;0.55;;;;;;;;;;4989828;28;20075;-53
2021/05/22 00:12:44;;;;;;;1.95;0.70;;;;;;;;;;4990402;28;20117;-49
2021/05/22 00:15:12;;;;;;;2.53;0.70;;;;;;;;;;4985270;28;20524;-51
2021/05/22 00:17:38;;;;;;;1.05;0.50;;;;;;;;;;4992007;28;20057;-50
2021/05/22 00:20:06;;;;;;;1.08;0.60;;;;;;;;;;4995002;28;20050;-47
2021/05/22 00:22:33;;;;;;;1.33;0.60;;;;;;;;;;4986745;28;20043;-51
2021/05/22 00:25:00;;;;;;;2.15;1.25;;;;;;;;;;4977488;28;20101;-49
2021/05/22 00:27:27;;;;;;;2.53;1.00;;;;;;;;;;4993772;28;20120;-48
2021/05/22 00:29:59;;;;;;;0.82;0.60;;;;;;;;;;4978044;28;20050;-49
2021/05/22 00:32:26;;;;;;;2.63;0.60;;;;;;;;;;4994862;28;20047;-48
2021/05/22 00:34:53;;;;;;;1.52;0.70;;;;;;;;;;4994315;28;20046;-47
2021/05/22 00:37:20;;;;;;;1.67;0.60;;;;;;;;;;4984487;28;20074;-50
2021/05/22 00:39:47;;;;;;;1.15;0.70;;;;;;;;;;4990385;28;20057;-48
2021/05/22 00:42:14;;;;;;;0.80;0.60;;;;;;;;;;4993836;28;20128;-49
2021/05/22 00:44:59;;;;;;;1.58;0.55;;;;;;;;;;4993371;28;20047;-48
2021/05/22 00:47:26;;;;;;;2.20;0.80;;;;;;;;;;4994150;28;20112;-53
2021/05/22 00:49:53;;;;;;;0.45;0.40;;;;;;;;;;4994427;28;20050;-52
2021/05/22 00:52:20;;;;;;;1.55;0.60;;;;;;;;;;4986778;28;20070;-53
2021/05/22 00:54:47;;;;;;;0.95;0.52;;;;;;;;;;4974990;28;20174;-53
2021/05/22 00:57:13;;;;;;;0.80;0.50;;;;;;;;;;4992401;28;20046;-48
2021/05/22 00:59:40;;;;;;;3.45;0.95;;;;;;;;;;4985412;28;20047;-52
2021/05/22 01:02:09;;;;;;;1.08;0.55;;;;;;;;;;4993356;28;20097;-50
2021/05/22 01:04:36;;;;;;;0.65;0.50;;;;;;;;;;5045152;23;20045;-48
2021/05/22 01:07:03;;;;;;;1.33;0.60;;;;;;;;;;5030384;28;20055;-47
2021/05/22 01:09:31;;;;;;;1.90;0.60;;;;;;;;;;5032590;28;20091;-50
2021/05/22 01:12:00;;;;;;;1.17;0.60;;;;;;;;;;5032199;28;20479;-47
2021/05/22 01:14:30;;;;;;;0.57;0.50;;;;;;;;;;5015458;28;20491;-47
2021/05/22 01:16:58;;;;;;;0.77;0.57;;;;;;;;;;5027573;28;20105;-49
2021/05/22 01:19:37;;;;;;;1.95;1.00;;;;;;;;;;5032678;28;20069;-50
2021/05/22 01:22:04;;;;;;;0.90;0.60;;;;;;;;;;5027683;28;20056;-48
2021/05/22 01:24:34;;;;;;;2.13;0.57;;;;;;;;;;5031608;28;20470;-50
2021/05/22 01:27:01;;;;;;;0.70;0.50;;;;;;;;;;5030994;28;20115;-50
2021/05/22 01:29:28;;;;;;;0.88;0.40;;;;;;;;;;5016661;28;20053;-48
2021/05/22 01:31:55;;;;;;;0.90;0.60;;;;;;;;;;5018679;28;20675;-49
2021/05/22 01:34:21;;;;;;;0.40;0.40;;;;;;;;;;5032635;28;20104;-49
2021/05/22 01:36:51;;;;;;;0.85;0.60;;;;;;;;;;5025887;28;20053;-49
2021/05/22 01:39:18;;;;;;;0.77;0.50;;;;;;;;;;5012560;28;20050;-51
2021/05/22 01:41:45;;;;;;;1.75;0.63;;;;;;;;;;5027034;28;20056;-48
2021/05/22 01:44:12;;;;;;;1.48;0.63;;;;;;;;;;5031751;28;20109;-50
2021/05/22 01:46:42;;;;;;;0.90;0.47;;;;;;;;;;5027812;28;20301;-50
2021/05/22 01:49:11;;;;;;;0.63;0.50;;;;;;;;;;5027763;28;20054;-52
2021/05/22 01:51:40;;;;;;;0.22;0.22;;;;;;;;;;5026188;28;20115;-47
2021/05/22 01:54:08;;;;;;;0.52;0.30;;;;;;;;;;5032504;28;20099;-49
2021/05/22 01:56:35;;;;;;;0.30;0.20;;;;;;;;;;5020273;28;20443;-50
2021/05/22 01:59:02;;;;;;;0.35;0.30;;;;;;;;;;5022734;28;20462;-49
2021/05/22 02:01:30;;;;;;;0.82;0.40;;;;;;;;;;5032115;28;20052;-48
2021/05/22 02:04:07;;;;;;;0.45;0.30;;;;;;;;;;5031007;28;20088;-47
2021/05/22 02:06:44;;;;;;;0.30;0.30;;;;;;;;;;5030544;28;20486;-51
2021/05/22 02:09:14;;;;;;;0.50;0.40;;;;;;;;;;5030543;28;20445;-50
2021/05/22 02:11:42;;;;;;;1.75;0.30;;;;;;;;;;5031075;28;20080;-51
2021/05/22 02:14:09;;;;;;;3.22;0.50;;;;;;;;;;5031762;28;20542;-47
2021/05/22 02:16:42;;;;;;;0.30;0.30;;;;;;;;;;5026571;28;20049;-47
2021/05/22 02:19:09;;;;;;;0.23;0.23;;;;;;;;;;5031023;28;20042;-49
2021/05/22 02:21:38;;;;;;;0.73;0.40;;;;;;;;;;5030921;28;20104;-51
2021/05/22 02:24:05;;;;;;;0.25;0.25;;;;;;;;;;5030685;28;20045;-47
2021/05/22 02:26:32;;;;;;;0.30;0.20;;;;;;;;;;5025941;28;20129;-48
2021/05/22 02:28:59;;;;;;;0.20;0.20;;;;;;;;;;5024251;28;20053;-49
2021/05/22 02:31:28;;;;;;;0.77;0.30;;;;;;;;;;5029613;28;20045;-50
2021/05/22 02:33:56;;;;;;;0.50;0.20;;;;;;;;;;5030884;28;20462;-48
2021/05/22 02:36:23;;;;;;;0.22;0.22;;;;;;;;;;5030352;28;20049;-50
2021/05/22 02:38:51;;;;;;;0.30;0.30;;;;;;;;;;5025760;28;20507;-49
2021/05/22 02:41:19;;;;;;;0.38;0.30;;;;;;;;;;5031816;28;20084;-49
2021/05/22 02:43:48;;;;;;;1.00;0.30;;;;;;;;;;5030685;28;20095;-50
2021/05/22 02:46:16;;;;;;;3.83;0.40;;;;;;;;;;5028057;28;20061;-50
2021/05/22 02:48:44;;;;;;;0.65;0.28;;;;;;;;;;5013956;28;20057;-48
2021/05/22 02:51:13;;;;;;;1.55;0.32;;;;;;;;;;5031272;28;20057;-51
2021/05/22 02:53:41;;;;;;;0.47;0.32;;;;;;;;;;5030524;28;20616;-51
2021/05/22 02:56:09;;;;;;;1.23;0.50;;;;;;;;;;5021814;28;20104;-48
2021/05/22 02:58:38;;;;;;;8.75;1.10;;;;;;;;;;5019604;28;20041;-48
2021/05/22 03:01:05;;;;;;;1.10;0.20;;;;;;;;;;5029859;28;20501;-51
2021/05/22 03:03:33;;;;;;;0.28;0.28;;;;;;;;;;5030181;28;20045;-49
2021/05/22 03:06:00;;;;;;;1.02;0.30;;;;;;;;;;5033889;28;20137;-51
2021/05/22 03:08:27;;;;;;;0.32;0.30;;;;;;;;;;5012018;28;20061;-49
2021/05/22 03:10:54;;;;;;;1.67;0.30;;;;;;;;;;5030104;28;20061;-49
2021/05/22 03:13:21;;;;;;;1.75;0.22;;;;;;;;;;5030207;28;20057;-50
2021/05/22 03:15:48;;;;;;;0.30;0.30;;;;;;;;;;5028053;28;20049;-49
2021/05/22 03:18:15;;;;;;;0.85;0.40;;;;;;;;;;5030089;28;20148;-53
2021/05/22 03:20:42;;;;;;;0.20;0.20;;;;;;;;;;5030901;28;20103;-55
2021/05/22 03:23:09;;;;;;;0.45;0.40;;;;;;;;;;5031398;28;20058;-54
2021/05/22 03:25:35;;;;;;;0.47;0.30;;;;;;;;;;5025140;28;20473;-55
2021/05/22 03:28:02;;;;;;;0.30;0.30;;;;;;;;;;5013352;28;20053;-55
2021/05/22 03:30:29;;;;;;;0.68;0.50;;;;;;;;;;5027183;28;20085;-51
2021/05/22 03:32:56;;;;;;;0.30;0.20;;;;;;;;;;5030523;28;20471;-55
2021/05/22 03:35:23;;;;;;;0.20;0.20;;;;;;;;;;5031583;28;20049;-54
2021/05/22 03:37:51;;;;;;;0.47;0.43;;;;;;;;;;5020413;28;20053;-51
2021/05/22 03:40:18;;;;;;;1.95;0.40;;;;;;;;;;5023478;28;20076;-50
2021/05/22 03:42:45;;;;;;;0.20;0.20;;;;;;;;;;5030335;28;20053;-51
2021/05/22 03:45:12;;;;;;;1.35;0.35;;;;;;;;;;5029980;28;20557;-53
2021/05/22 03:47:39;;;;;;;1.08;0.40;;;;;;;;;;5016830;28;20108;-51
2021/05/22 03:50:06;;;;;;;0.38;0.30;;;;;;;;;;5021682;28;20057;-54
2021/05/22 03:52:33;;;;;;;0.40;0.30;;;;;;;;;;5034472;28;20041;-53
2021/05/22 03:55:00;;;;;;;0.30;0.30;;;;;;;;;;5033858;28;20050;-52
2021/05/22 03:57:28;;;;;;;0.63;0.30;;;;;;;;;;5020641;28;20048;-54
2021/05/22 03:59:54;;;;;;;2.30;0.50;;;;;;;;;;5032907;28;20061;-53
2021/05/22 04:02:21;;;;;;;1.05;0.40;;;;;;;;;;5033884;28;20048;-55
2021/05/22 04:04:48;;;;;;;1.25;0.40;;;;;;;;;;5034011;28;20045;-55
2021/05/22 04:07:15;;;;;;;1.30;0.45;;;;;;;;;;5033913;28;20057;-54
2021/05/22 04:09:42;;;;;;;0.30;0.30;;;;;;;;;;5018323;28;20057;-51
2021/05/22 04:12:08;;;;;;;2.00;0.30;;;;;;;;;;5032453;28;20045;-54
2021/05/22 04:14:35;;;;;;;0.30;0.30;;;;;;;;;;5033360;28;20053;-53
2021/05/22 04:17:02;;;;;;;0.60;0.40;;;;;;;;;;5032232;28;20422;-54
2021/05/22 04:19:29;;;;;;;0.45;0.40;;;;;;;;;;5014153;28;20082;-55
2021/05/22 04:21:56;;;;;;;0.70;0.30;;;;;;;;;;5030450;28;20076;-53
2021/05/22 04:24:22;;;;;;;0.85;0.57;;;;;;;;;;5033118;28;20118;-55
2021/05/22 04:26:49;;;;;;;0.50;0.40;;;;;;;;;;5015889;28;20061;-54
2021/05/22 04:29:16;;;;;;;0.55;0.50;;;;;;;;;;5020732;28;20115;-54
2021/05/22 04:31:43;;;;;;;0.93;0.52;;;;;;;;;;5032419;28;20053;-51
2021/05/22 04:34:10;;;;;;;0.50;0.40;;;;;;;;;;5033107;28;20131;-54
2021/05/22 04:36:37;;;;;;;1.75;0.95;;;;;;;;;;5023060;28;20465;-55
2021/05/22 04:39:05;;;;;;;1.25;0.40;;;;;;;;;;5033386;28;20517;-54
2021/05/22 04:41:32;;;;;;;1.10;0.55;;;;;;;;;;5033685;28;20053;-53
2021/05/22 04:43:59;;;;;;;0.65;0.50;;;;;;;;;;5032016;28;20387;-53
2021/05/22 04:46:26;;;;;;;0.20;0.20;;;;;;;;;;5015908;28;20132;-53
2021/05/22 04:48:55;;;;;;;0.50;0.50;;;;;;;;;;5029590;28;20079;-54
2021/05/22 04:51:23;;;;;;;1.17;0.50;;;;;;;;;;5032667;28;20057;-51
2021/05/22 04:53:50;;;;;;;0.28;0.28;;;;;;;;;;5031583;28;20049;-53
2021/05/22 04:56:16;;;;;;;1.85;0.40;;;;;;;;;;5019142;28;20069;-53
2021/05/22 04:58:43;;;;;;;0.43;0.40;;;;;;;;;;5029641;28;20053;-51
2021/05/22 05:01:10;;;;;;;1.95;0.50;;;;;;;;;;5032321;28;20095;-55
2021/05/22 05:03:37;;;;;;;0.85;0.50;;;;;;;;;;5030679;28;20099;-51
2021/05/22 05:06:05;;;;;;;1.83;0.35;;;;;;;;;;5032186;28;20049;-52
2021/05/22 05:08:31;;;;;;;0.40;0.38;;;;;;;;;;5022033;28;20495;-55
2021/05/22 05:10:58;;;;;;;1.27;0.40;;;;;;;;;;5021648;28;20057;-53
2021/05/22 05:13:25;;;;;;;0.47;0.30;;;;;;;;;;5031892;28;20052;-50
2021/05/22 05:15:52;;;;;;;0.50;0.50;;;;;;;;;;5032683;28;20501;-51
2021/05/22 05:18:19;;;;;;;0.30;0.30;;;;;;;;;;5031087;28;20057;-51
2021/05/22 05:20:46;;;;;;;0.63;0.32;;;;;;;;;;5032130;28;20130;-50
2021/05/22 05:23:13;;;;;;;1.95;0.93;;;;;;;;;;5032432;28;20049;-52
2021/05/22 05:25:39;;;;;;;0.50;0.40;;;;;;;;;;5031879;28;20135;-52
2021/05/22 05:28:06;;;;;;;1.42;0.40;;;;;;;;;;5015764;28;20049;-55
2021/05/22 05:30:33;;;;;;;1.45;0.70;;;;;;;;;;5013242;28;20108;-51
2021/05/22 05:33:00;;;;;;;1.02;0.40;;;;;;;;;;5017594;28;20077;-54
2021/05/22 05:35:26;;;;;;;2.78;0.80;;;;;;;;;;5029131;28;20050;-50
2021/05/22 05:37:53;;;;;;;1.75;0.40;;;;;;;;;;5016577;28;20477;-54
2021/05/22 05:40:20;;;;;;;0.30;0.28;;;;;;;;;;5032957;28;20497;-51
2021/05/22 05:42:47;;;;;;;0.47;0.30;;;;;;;;;;5030140;28;20085;-51
2021/05/22 05:45:14;;;;;;;0.50;0.50;;;;;;;;;;5030442;28;20115;-53
2021/05/22 05:47:41;;;;;;;1.08;0.60;;;;;;;;;;5030589;28;20053;-51
2021/05/22 05:50:12;;;;;;;0.60;0.50;;;;;;;;;;5031105;28;20111;-52
2021/05/22 05:52:38;;;;;;;4.35;0.70;;;;;;;;;;5022778;28;20152;-53
2021/05/22 05:55:05;;;;;;;2.65;0.70;;;;;;;;;;5028744;28;20081;-51
2021/05/22 05:57:32;;;;;;;0.57;0.47;;;;;;;;;;5031278;28;20120;-52
2021/05/22 06:00:00;;;;;;;0.45;0.45;;;;;;;;;;5029292;28;20148;-51
2021/05/22 06:02:27;;;;;;;0.60;0.40;;;;;;;;;;5029709;28;20053;-52
2021/05/22 06:04:54;;;;;;;1.10;0.40;;;;;;;;;;5031662;28;20060;-54
2021/05/22 06:07:21;;;;;;;1.17;0.50;;;;;;;;;;5048327;28;20131;-54
2021/05/22 06:09:48;;;;;;;0.55;0.40;;;;;;;;;;5032313;28;20057;-54
2021/05/22 06:12:15;;;;;;;0.65;0.40;;;;;;;;;;5030779;28;20095;-55
2021/05/22 06:14:44;;;;;;;1.85;1.25;;;;;;;;;;5029943;28;20068;-52
2021/05/22 06:17:12;;;;;;;1.25;0.52;;;;;;;;;;5030453;28;20050;-54
2021/05/22 06:19:39;;;;;;;1.27;0.60;;;;;;;;;;5031796;28;20091;-55
2021/05/22 06:22:06;;;;;;;2.40;0.60;;;;;;;;;;5027347;28;20046;-54
2021/05/22 06:24:33;;;;;;;1.23;0.50;;;;;;;;;;5011757;28;20050;-53
2021/05/22 06:26:59;;;;;;;1.83;0.50;;;;;;;;;;5022092;28;20057;-48
2021/05/22 06:29:26;;;;;;;2.10;0.70;;;;;;;;;;5022424;28;20045;-47
2021/05/22 06:32:04;;;;;;;3.22;0.68;;;;;;;;;;5028861;28;20059;-52
2021/05/22 06:34:31;;;;;;;5.18;1.45;;;;;;;;;;5028562;28;20041;-54
2021/05/22 06:36:57;;;;;;;2.53;0.60;;;;;;;;;;5030356;28;20041;-52
2021/05/22 06:39:24;;;;;;;3.80;1.05;;;;;;;;;;5029258;28;20050;-52
2021/05/22 06:41:51;;;;;;;1.95;0.70;;;;;;;;;;5030425;28;20053;-53
2021/05/22 06:44:25;;;;;;;3.33;0.80;;;;;;;;;;5029797;28;20045;-53
2021/05/22 06:46:52;;;;;;;2.33;0.60;;;;;;;;;;5021224;28;20109;-53
2021/05/22 06:49:31;;;;;;;1.73;0.77;;;;;;;;;;5019596;28;20509;-52
2021/05/22 06:51:59;;;;;;;1.23;0.60;;;;;;;;;;5030946;28;20049;-52
2021/05/22 06:54:27;;;;;;;2.00;0.60;;;;;;;;;;5032344;28;20045;-48
2021/05/22 06:56:54;;;;;;;1.38;0.90;;;;;;;;;;5039035;28;20087;-49
2021/05/22 06:59:20;;;;;;;2.63;0.70;;;;;;;;;;5015622;28;20042;-49
2021/05/22 07:01:47;;;;;;;1.60;0.77;;;;;;;;;;5019754;28;20107;-48
2021/05/22 07:04:14;;;;;;;3.72;0.70;;;;;;;;;;5030189;28;20045;-49
2021/05/22 07:06:41;;;;;;;3.08;0.75;;;;;;;;;;5029143;28;20041;-50
2021/05/22 07:09:08;;;;;;;1.42;0.70;;;;;;;;;;5024089;28;20048;-50
2021/05/22 07:11:35;;;;;;;6.60;0.80;;;;;;;;;;5029716;28;20092;-50
2021/05/22 07:14:02;;;;;;;4.65;0.70;;;;;;;;;;5029887;28;20069;-50
2021/05/22 07:16:49;;;;;;;2.45;0.70;;;;;;;;;;5026078;28;20202;-52
2021/05/22 07:19:16;;;;;;;2.58;0.73;;;;;;;;;;5028571;28;20446;-53
2021/05/22 07:21:43;;;;;;;3.55;1.00;;;;;;;;;;5030494;28;20061;-48
2021/05/22 07:24:09;;;;;;;5.28;0.90;;;;;;;;;;5028853;28;20065;-50
2021/05/22 07:26:36;;;;;;;3.35;0.73;;;;;;;;;;5020662;28;20053;-49
2021/05/22 07:29:09;;;;;;;4.05;1.02;;;;;;;;;;5014812;28;20140;-52
2021/05/22 07:31:39;;;;;;;3.45;0.80;;;;;;;;;;5032891;28;20580;-54
2021/05/22 07:34:08;;;;;;;2.92;1.05;;;;;;;;;;5033902;28;20041;-52
2021/05/22 07:36:38;;;;;;;2.60;0.85;;;;;;;;;;5029738;28;20037;-46
2021/05/22 07:39:06;;;;;;;2.90;1.00;;;;;;;;;;5034479;28;20050;-51
2021/05/22 07:41:33;;;;;;;5.20;0.93;;;;;;;;;;5034935;28;20072;-50
2021/05/22 07:44:00;;;;;;;4.95;1.08;;;;;;;;;;5028565;28;20050;-53
2021/05/22 07:46:27;;;;;;;5.28;1.00;;;;;;;;;;5030911;28;20056;-54
2021/05/22 07:48:54;;;;;;;3.30;0.80;;;;;;;;;;5049934;28;20060;-51
2021/05/22 07:51:21;;;;;;;5.22;1.10;;;;;;;;;;5054108;28;20060;-54
2021/05/22 07:53:48;;;;;;;3.20;0.82;;;;;;;;;;5046280;28;20484;-54
2021/05/22 07:56:15;;;;;;;3.63;0.95;;;;;;;;;;5014500;28;20115;-53
2021/05/22 07:58:42;;;;;;;6.40;1.52;;;;;;;;;;5034460;28;20049;-53
2021/05/22 08:01:08;;;;;;;4.93;1.10;;;;;;;;;;5037499;28;20569;-50
2021/05/22 08:03:35;;;;;;;1.98;0.82;;;;;;;;;;5036873;28;20647;-53
2021/05/22 08:06:13;;;;;;;3.38;0.80;;;;;;;;;;5053900;28;20107;-50
2021/05/22 08:08:40;;;;;;;3.60;0.90;;;;;;;;;;5020806;28;20472;-52
2021/05/22 08:11:07;;;;;;;3.00;1.05;;;;;;;;;;5014105;28;20120;-52
2021/05/22 08:13:34;;;;;;;2.30;1.00;;;;;;;;;;5013835;28;20058;-53
2021/05/22 08:16:01;;;;;;;4.80;1.70;;;;;;;;;;5013936;28;20360;-51
2021/05/22 08:18:29;;;;;;;5.05;0.98;;;;;;;;;;5013148;28;20061;-51
2021/05/22 08:20:56;;;;;;;2.80;1.00;;;;;;;;;;5013907;28;20045;-52
2021/05/22 08:23:23;;;;;;;3.75;1.30;;;;;;;;;;5013380;28;20119;-48
2021/05/22 08:25:50;;;;;;;1.80;0.80;;;;;;;;;;5036130;28;20536;-50
2021/05/22 08:28:37;;;;;;;2.85;1.00;;;;;;;;;;5041528;28;20106;-53
2021/05/22 08:31:04;;;;;;;3.63;0.90;;;;;;;;;;5047238;28;20068;-52
2021/05/22 08:33:31;;;;;;;4.35;1.00;;;;;;;;;;5044281;28;20135;-52
2021/05/22 08:35:58;;;;;;;3.03;0.82;;;;;;;;;;5048105;28;20041;-52
2021/05/22 08:38:24;;;;;;;5.00;1.27;;;;;;;;;;5047698;28;20049;-51
2021/05/22 08:40:51;;;;;;;3.22;0.90;;;;;;;;;;5039334;28;20067;-48
2021/05/22 08:43:19;;;;;;;3.58;1.10;;;;;;;;;;5029210;28;20062;-51
2021/05/22 08:45:45;;;;;;;5.10;1.13;;;;;;;;;;5024909;28;20061;-50
2021/05/22 08:48:14;;;;;;;3.83;0.70;;;;;;;;;;5032702;28;20128;-50
2021/05/22 08:50:42;;;;;;;4.68;1.00;;;;;;;;;;5030764;28;20522;-52
2021/05/22 08:53:09;;;;;;;2.22;0.60;;;;;;;;;;5025612;28;20088;-50
2021/05/22 08:55:36;;;;;;;2.20;0.80;;;;;;;;;;5025428;28;20537;-50
2021/05/22 08:58:02;;;;;;;3.63;0.95;;;;;;;;;;5029729;28;20046;-53
2021/05/22 09:00:37;;;;;;;2.97;0.90;;;;;;;;;;5031708;28;20053;-50
2021/05/22 09:03:04;;;;;;;7.68;1.75;;;;;;;;;;5031457;28;20061;-52
2021/05/22 09:05:32;;;;;;;4.45;1.10;;;;;;;;;;5032344;28;20056;-48
2021/05/22 09:08:00;;;;;;;2.88;0.80;;;;;;;;;;5034213;28;20056;-51
2021/05/22 09:10:37;;;;;;;2.78;0.80;;;;;;;;;;5037167;28;20049;-50
2021/05/22 09:13:08;;;;;;;2.55;0.82;;;;;;;;;;5036099;28;20045;-50
2021/05/22 09:15:40;;;;;;;2.38;0.70;;;;;;;;;;5029369;28;20042;-52
2021/05/22 09:18:13;;;;;;;1.10;0.60;;;;;;;;;;5015585;28;20118;-50
2021/05/22 09:20:46;;;;;;;5.10;0.60;;;;;;;;;;5027769;28;20057;-48
2021/05/22 09:23:14;;;;;;;2.33;0.80;;;;;;;;;;5021304;28;20057;-51
2021/05/22 09:25:42;;;;;;;3.33;0.90;;;;;;;;;;5029678;28;20057;-52
2021/05/22 09:28:10;;;;;;;2.80;0.98;;;;;;;;;;5029734;28;20064;-51
2021/05/22 09:30:38;;;;;;;2.42;0.80;;;;;;;;;;5032566;28;20663;-52
2021/05/22 09:33:10;;;;;;;2.88;0.80;;;;;;;;;;5024893;28;20113;-50
2021/05/22 09:35:37;;;;;;;4.22;0.98;;;;;;;;;;5027609;28;20085;-46
2021/05/22 09:38:04;;;;;;;4.50;0.88;;;;;;;;;;5028951;28;20049;-53
2021/05/22 09:40:35;;;;;;;1.65;0.70;;;;;;;;;;5030068;28;20071;-51
2021/05/22 09:43:03;;;;;;;4.18;1.23;;;;;;;;;;5026831;28;20057;-53
2021/05/22 09:45:35;;;;;;;3.58;0.70;;;;;;;;;;5030623;28;20469;-53
2021/05/22 09:48:11;;;;;;;3.00;0.80;;;;;;;;;;5024787;28;20061;-49
2021/05/22 09:50:39;;;;;;;4.45;1.27;;;;;;;;;;5024767;28;20096;-47
2021/05/22 09:53:29;;;;;;;3.13;1.45;;;;;;;;;;5032151;28;20041;-54
2021/05/22 09:56:14;;;;;;;1.98;0.60;;;;;;;;;;5032182;28;20053;-49
2021/05/22 09:58:42;;;;;;;2.30;0.77;;;;;;;;;;5036734;28;20049;-49
2021/05/22 10:01:10;;;;;;;1.92;0.73;;;;;;;;;;5033489;28;20053;-52
2021/05/22 10:03:37;;;;;;;3.92;1.92;;;;;;;;;;5029525;28;20141;-50
2021/05/22 10:06:05;;;;;;;4.97;0.82;;;;;;;;;;5034912;28;20061;-51
2021/05/22 10:08:32;;;;;;;3.47;0.73;;;;;;;;;;5037843;28;20071;-49
2021/05/22 10:10:59;;;;;;;2.75;1.00;;;;;;;;;;5027773;28;20388;-53
2021/05/22 10:13:27;;;;;;;2.08;0.75;;;;;;;;;;5029533;28;20045;-53
2021/05/22 10:15:55;;;;;;;2.97;0.75;;;;;;;;;;5022429;28;20045;-53
2021/05/22 10:18:23;;;;;;;2.38;0.60;;;;;;;;;;5029027;28;20109;-52
2021/05/22 10:20:52;;;;;;;1.83;0.85;;;;;;;;;;5032555;28;20445;-51
2021/05/22 10:23:19;;;;;;;3.08;0.90;;;;;;;;;;5028297;28;20132;-50
2021/05/22 10:25:47;;;;;;;2.97;0.85;;;;;;;;;;5035841;28;20055;-54
2021/05/22 10:28:13;;;;;;;3.83;1.00;;;;;;;;;;5030185;28;20084;-52
2021/05/22 10:30:41;;;;;;;5.85;1.20;;;;;;;;;;5028429;28;20107;-50
2021/05/22 10:33:08;;;;;;;1.88;0.90;;;;;;;;;;5023707;28;20621;-51
2021/05/22 10:35:43;;;;;;;3.47;0.75;;;;;;;;;;5026205;28;20111;-51
2021/05/22 10:38:30;;;;;;;5.68;0.80;;;;;;;;;;5012484;28;20107;-53
2021/05/22 10:40:57;;;;;;;2.10;0.77;;;;;;;;;;5030596;28;20052;-54
2021/05/22 10:43:44;;;;;;;2.50;0.60;;;;;;;;;;5031584;28;20038;-54
2021/05/22 10:46:11;;;;;;;4.05;1.10;;;;;;;;;;5030964;28;20549;-51
2021/05/22 10:48:38;;;;;;;3.10;1.00;;;;;;;;;;5019461;28;20045;-50
2021/05/22 10:51:20;;;;;;;2.72;0.88;;;;;;;;;;5031429;28;20499;-50
2021/05/22 10:53:57;;;;;;;2.55;0.75;;;;;;;;;;5030969;28;20064;-49
2021/05/22 10:56:24;;;;;;;1.05;0.50;;;;;;;;;;5027798;28;20041;-47
2021/05/22 10:59:07;;;;;;;1.98;0.90;;;;;;;;;;5031106;28;20135;-54
2021/05/22 11:01:39;;;;;;;3.97;0.93;;;;;;;;;;5041290;28;20521;-53
2021/05/22 11:04:21;;;;;;;3.47;0.90;;;;;;;;;;5040048;28;20053;-52
2021/05/22 11:06:49;;;;;;;3.40;0.80;;;;;;;;;;5041862;28;20059;-49
2021/05/22 11:09:42;;;;;;;1.83;0.80;;;;;;;;;;5029917;28;20091;-48
2021/05/22 11:12:12;;;;;;;2.25;1.00;;;;;;;;;;5030777;28;20064;-49
2021/05/22 11:14:42;;;;;;;2.47;0.77;;;;;;;;;;5030433;28;20033;-49
2021/05/22 11:17:28;;;;;;;1.90;0.70;;;;;;;;;;5033149;28;20516;-51
2021/05/22 11:19:59;;;;;;;2.17;0.80;;;;;;;;;;5031166;28;20056;-50
2021/05/22 11:22:26;;;;;;;2.70;1.00;;;;;;;;;;5032910;28;20515;-48
2021/05/22 11:25:00;;;;;;;3.00;1.00;;;;;;;;;;5031028;28;20136;-50
2021/05/22 11:30:13;;;;;;;2.65;0.90;;;;;;;;;;5031106;28;20471;-48
2021/05/22 11:32:45;;;;;;;1.42;0.70;;;;;;;;;;5024571;28;20180;-49
2021/05/22 11:35:46;;;;;;;2.15;1.27;;;;;;;;;;5028614;28;20049;-49
2021/05/22 11:38:19;;;;;;;4.47;0.90;;;;;;;;;;5031301;28;20053;-49
2021/05/22 11:41:02;;;;;;;2.72;0.88;;;;;;;;;;5035153;28;20462;-48
2021/05/22 11:43:37;;;;;;;2.35;0.82;;;;;;;;;;5035049;28;20056;-51
2021/05/22 11:46:11;;;;;;;2.28;0.95;;;;;;;;;;5033379;28;20739;-51
2021/05/22 11:48:48;;;;;;;2.10;0.65;;;;;;;;;;5026578;28;20057;-50
2021/05/22 11:51:16;;;;;;;4.25;0.70;;;;;;;;;;5036860;28;20053;-50
2021/05/22 11:53:47;;;;;;;3.50;0.88;;;;;;;;;;5029892;28;20060;-48
2021/05/22 11:56:14;;;;;;;2.47;0.80;;;;;;;;;;5023304;28;20050;-51
2021/05/22 11:58:42;;;;;;;2.60;0.77;;;;;;;;;;5033814;28;20049;-48
2021/05/22 12:01:09;;;;;;;1.92;0.70;;;;;;;;;;5033197;28;20041;-52
2021/05/22 12:03:37;;;;;;;2.30;0.68;;;;;;;;;;5024347;28;20049;-51
2021/05/22 12:06:05;;;;;;;3.38;1.13;;;;;;;;;;5032485;28;20041;-50
2021/05/22 12:08:32;;;;;;;3.28;1.10;;;;;;;;;;5023066;28;20056;-50
2021/05/22 12:11:09;;;;;;;2.45;0.60;;;;;;;;;;5037126;28;20433;-52
2021/05/22 12:13:52;;;;;;;2.80;1.25;;;;;;;;;;5031159;28;20042;-50
2021/05/22 12:16:20;;;;;;;2.40;0.80;;;;;;;;;;5038268;28;20056;-51
2021/05/22 12:18:46;;;;;;;1.10;0.60;;;;;;;;;;5030256;28;20384;-50
2021/05/22 12:21:20;;;;;;;2.90;0.70;;;;;;;;;;5038305;28;20056;-47
2021/05/22 12:23:48;;;;;;;2.25;0.85;;;;;;;;;;5027980;28;20084;-49
2021/05/22 12:26:15;;;;;;;3.03;0.70;;;;;;;;;;5014141;28;20054;-47
2021/05/22 12:28:41;;;;;;;4.40;0.85;;;;;;;;;;5017889;28;20077;-54
2021/05/22 12:31:08;;;;;;;1.20;0.60;;;;;;;;;;5040096;28;20049;-52
2021/05/22 12:33:35;;;;;;;1.52;0.80;;;;;;;;;;5054151;28;20055;-48
2021/05/22 12:36:02;;;;;;;2.00;0.75;;;;;;;;;;5053846;28;20485;-48
2021/05/22 12:38:42;;;;;;;3.25;0.80;;;;;;;;;;5034570;28;20046;-48
2021/05/22 12:41:09;;;;;;;1.42;0.70;;;;;;;;;;5030980;28;20045;-48
2021/05/22 12:43:46;;;;;;;5.40;0.77;;;;;;;;;;5032813;28;20080;-49
2021/05/22 12:46:32;;;;;;;1.05;0.68;;;;;;;;;;5033600;28;20561;-51
2021/05/22 12:49:31;;;;;;;4.60;0.80;;;;;;;;;;5016919;28;20058;-48
2021/05/22 12:51:58;;;;;;;1.95;0.70;;;;;;;;;;5032638;28;20498;-50
2021/05/22 12:54:28;;;;;;;2.60;1.50;;;;;;;;;;5033344;28;20053;-50
2021/05/22 12:57:06;;;;;;;1.08;0.70;;;;;;;;;;5025017;28;20046;-50
2021/05/22 12:59:33;;;;;;;2.05;1.02;;;;;;;;;;5013648;28;20046;-50
2021/05/22 13:02:17;;;;;;;2.75;1.00;;;;;;;;;;5013533;28;20492;-53
2021/05/22 13:04:44;;;;;;;2.38;0.80;;;;;;;;;;5013635;28;20057;-48
2021/05/22 13:07:11;;;;;;;2.33;1.02;;;;;;;;;;5013033;28;20106;-50
2021/05/22 13:09:51;;;;;;;2.85;0.75;;;;;;;;;;5013480;28;20057;-44
2021/05/22 13:12:18;;;;;;;2.05;0.80;;;;;;;;;;5013675;28;20108;-49
2021/05/22 13:15:12;;;;;;;2.50;0.80;;;;;;;;;;5013745;28;20065;-52
2021/05/22 13:17:52;;;;;;;3.85;0.90;;;;;;;;;;5029915;28;20052;-53
2021/05/22 13:20:51;;;;;;;3.10;0.80;;;;;;;;;;5037698;28;20050;-53
2021/05/22 13:23:20;;;;;;;2.22;0.70;;;;;;;;;;5019367;28;20104;-48
2021/05/22 13:25:51;;;;;;;1.33;0.60;;;;;;;;;;5018096;28;20053;-49
2021/05/22 13:28:24;;;;;;;3.08;0.70;;;;;;;;;;5012899;28;20054;-47
2021/05/22 13:30:53;;;;;;;;;;;;;;;;;;5013383;28;20065;-49
2021/05/22 13:33:33;;;;;;;2.28;0.70;;;;;;;;;;5012872;28;19925;-50
2021/05/22 13:36:00;;;;;;;3.40;0.60;;;;;;;;;;5016169;28;20064;-52
2021/05/22 13:38:27;;;;;;;1.90;0.85;;;;;;;;;;5027685;28;20054;-55
2021/05/22 13:40:54;;;;;;;1.08;0.70;;;;;;;;;;5048848;28;20119;-51
2021/05/22 13:43:20;;;;;;;2.25;0.90;;;;;;;;;;5018229;28;20055;-50
2021/05/22 13:45:47;;;;;;;2.25;0.60;;;;;;;;;;5032764;28;20491;-50
2021/05/22 13:48:14;;;;;;;2.03;0.75;;;;;;;;;;5032434;28;20111;-49
2021/05/22 13:50:41;;;;;;;4.55;1.10;;;;;;;;;;5029419;28;20060;-49
2021/05/22 13:53:08;;;;;;;3.10;0.60;;;;;;;;;;5030277;28;20049;-51
2021/05/22 13:55:36;;;;;;;1.15;0.75;;;;;;;;;;5031911;28;20207;-50
2021/05/22 13:58:03;;;;;;;1.15;0.63;;;;;;;;;;5027527;28;20041;-47
2021/05/22 14:00:30;;;;;;;3.47;0.70;;;;;;;;;;5024157;28;20129;-46
2021/05/22 14:02:57;;;;;;;3.60;0.85;;;;;;;;;;5031504;28;20475;-45
2021/05/22 14:05:24;;;;;;;2.20;0.90;;;;;;;;;;5030793;28;20042;-46
2021/05/22 14:07:51;;;;;;;3.63;0.70;;;;;;;;;;5010871;28;20054;-46
2021/05/22 14:10:18;;;;;;;1.75;0.60;;;;;;;;;;5018245;28;20388;-50
2021/05/22 14:12:45;;;;;;;2.83;0.63;;;;;;;;;;5031840;28;20061;-45
2021/05/22 14:15:13;;;;;;;2.08;0.82;;;;;;;;;;5022231;28;20056;-48
2021/05/22 14:17:40;;;;;;;1.92;0.63;;;;;;;;;;5011148;28;20052;-47
2021/05/22 14:20:07;;;;;;;3.22;0.80;;;;;;;;;;5011893;28;20054;-52
2021/05/22 14:22:34;;;;;;;4.10;0.82;;;;;;;;;;5022650;28;20517;-47
2021/05/22 14:25:02;;;;;;;2.33;0.63;;;;;;;;;;5029444;28;20136;-49
2021/05/22 14:27:29;;;;;;;2.17;0.68;;;;;;;;;;5023799;28;20088;-47
2021/05/22 14:29:56;;;;;;;1.55;0.80;;;;;;;;;;5021962;28;20064;-48
2021/05/22 14:32:23;;;;;;;5.25;0.70;;;;;;;;;;5029233;28;20115;-44
2021/05/22 14:34:50;;;;;;;1.13;0.70;;;;;;;;;;5031087;28;20048;-44
2021/05/22 14:37:17;;;;;;;2.67;0.77;;;;;;;;;;5029568;28;20053;-46
2021/05/22 14:39:44;;;;;;;2.08;0.60;;;;;;;;;;5019369;28;20095;-50
2021/05/22 14:42:11;;;;;;;2.58;0.68;;;;;;;;;;5028434;28;20046;-45
2021/05/22 14:44:38;;;;;;;2.72;0.60;;;;;;;;;;5031144;28;20503;-49
2021/05/22 14:47:05;;;;;;;0.98;0.50;;;;;;;;;;5022075;28;20483;-46
2021/05/22 14:49:33;;;;;;;2.80;0.80;;;;;;;;;;5031743;28;20061;-44
2021/05/22 14:52:00;;;;;;;1.52;0.90;;;;;;;;;;5027339;28;20053;-45
2021/05/22 14:54:27;;;;;;;3.42;0.82;;;;;;;;;;5029692;28;20517;-45
2021/05/22 14:56:54;;;;;;;2.75;0.50;;;;;;;;;;5021147;28;20049;-48